sensor_id;sensor_type;location;lat;lon;timestamp;temperature;humidity
66740;DHT22;53653;52.188;8.602;2023-08-01T00:02:19;16.96;95.37
66740;DHT22;53653;52.188;8.602;2023-08-01T00:04:44;16.97;95.14
66740;DHT22;53653;52.188;8.602;2023-08-01T00:07:09;17.16;94.39
66740;DHT22;53653;52.188;8.602;2023-08-01T00:09:35;17.13;94.36
66740;DHT22;53653;52.188;8.602;2023-08-01T00:12:00;16.99;94.71
66740;DHT22;53653;52.188;8.602;2023-08-01T00:14:26;16.93;94.85
66740;DHT22;53653;52.188;8.602;2023-08-01T00:16:51;16.87;95.14
66740;DHT22;53653;52.188;8.602;2023-08-01T00:19:17;16.87;95.32
66740;DHT22;53653;52.188;8.602;2023-08-01T00:21:43;16.90;95.12
66740;DHT22;53653;52.188;8.602;2023-08-01T00:24:09;16.89;95.29
66740;DHT22;53653;52.188;8.602;2023-08-01T00:26:35;16.81;94.96
66740;DHT22;53653;52.188;8.602;2023-08-01T00:29:00;16.81;94.96
66740;DHT22;53653;52.188;8.602;2023-08-01T00:31:26;16.97;94.16
66740;DHT22;53653;52.188;8.602;2023-08-01T00:33:52;16.96;93.85
66740;DHT22;53653;52.188;8.602;2023-08-01T00:36:17;16.96;93.60
66740;DHT22;53653;52.188;8.602;2023-08-01T00:38:43;16.89;93.91
66740;DHT22;53653;52.188;8.602;2023-08-01T00:41:09;16.80;94.07
66740;DHT22;53653;52.188;8.602;2023-08-01T00:43:35;16.86;93.53
66740;DHT22;53653;52.188;8.602;2023-08-01T00:46:03;16.87;93.36
66740;DHT22;53653;52.188;8.602;2023-08-01T00:48:30;16.80;93.71
66740;DHT22;53653;52.188;8.602;2023-08-01T00:50:57;16.73;93.77
66740;DHT22;53653;52.188;8.602;2023-08-01T00:53:24;16.66;93.86
66740;DHT22;53653;52.188;8.602;2023-08-01T00:55:52;16.60;93.98
66740;DHT22;53653;52.188;8.602;2023-08-01T00:58:20;16.59;94.04
66740;DHT22;53653;52.188;8.602;2023-08-01T01:00:46;16.56;93.71
66740;DHT22;53653;52.188;8.602;2023-08-01T01:03:12;16.53;93.69
66740;DHT22;53653;52.188;8.602;2023-08-01T01:05:41;16.47;93.87
66740;DHT22;53653;52.188;8.602;2023-08-01T01:08:08;16.47;93.72
66740;DHT22;53653;52.188;8.602;2023-08-01T01:10:33;16.39;94.01
66740;DHT22;53653;52.188;8.602;2023-08-01T01:12:59;16.28;94.46
66740;DHT22;53653;52.188;8.602;2023-08-01T01:15:24;16.25;94.63
66740;DHT22;53653;52.188;8.602;2023-08-01T01:17:50;16.18;94.60
66740;DHT22;53653;52.188;8.602;2023-08-01T01:20:22;16.11;94.95
66740;DHT22;53653;52.188;8.602;2023-08-01T01:22:48;16.00;95.19
66740;DHT22;53653;52.188;8.602;2023-08-01T01:25:15;16.07;95.14
66740;DHT22;53653;52.188;8.602;2023-08-01T01:27:41;16.07;95.12
66740;DHT22;53653;52.188;8.602;2023-08-01T01:30:08;16.10;95.03
66740;DHT22;53653;52.188;8.602;2023-08-01T01:32:33;15.98;95.39
66740;DHT22;53653;52.188;8.602;2023-08-01T01:35:01;15.93;95.22
66740;DHT22;53653;52.188;8.602;2023-08-01T01:37:26;15.89;95.26
66740;DHT22;53653;52.188;8.602;2023-08-01T01:39:52;15.90;95.25
66740;DHT22;53653;52.188;8.602;2023-08-01T01:42:18;15.91;95.19
66740;DHT22;53653;52.188;8.602;2023-08-01T01:44:43;16.01;94.60
66740;DHT22;53653;52.188;8.602;2023-08-01T01:47:09;16.11;93.81
66740;DHT22;53653;52.188;8.602;2023-08-01T01:49:34;16.11;93.81
66740;DHT22;53653;52.188;8.602;2023-08-01T01:52:00;16.15;93.45
66740;DHT22;53653;52.188;8.602;2023-08-01T01:54:25;16.12;93.69
66740;DHT22;53653;52.188;8.602;2023-08-01T01:56:51;16.01;94.15
66740;DHT22;53653;52.188;8.602;2023-08-01T01:59:16;16.07;94.22
66740;DHT22;53653;52.188;8.602;2023-08-01T02:01:42;15.96;94.44
66740;DHT22;53653;52.188;8.602;2023-08-01T02:04:07;15.90;94.66
66740;DHT22;53653;52.188;8.602;2023-08-01T02:06:32;15.81;94.96
66740;DHT22;53653;52.188;8.602;2023-08-01T02:08:58;15.81;94.77
66740;DHT22;53653;52.188;8.602;2023-08-01T02:11:27;15.71;95.23
66740;DHT22;53653;52.188;8.602;2023-08-01T02:13:53;15.62;95.81
66740;DHT22;53653;52.188;8.602;2023-08-01T02:16:19;15.67;96.00
66740;DHT22;53653;52.188;8.602;2023-08-01T02:18:44;15.62;96.02
66740;DHT22;53653;52.188;8.602;2023-08-01T02:21:10;15.60;95.80
66740;DHT22;53653;52.188;8.602;2023-08-01T02:23:35;15.56;95.93
66740;DHT22;53653;52.188;8.602;2023-08-01T02:26:03;15.56;96.06
66740;DHT22;53653;52.188;8.602;2023-08-01T02:28:28;15.63;95.91
66740;DHT22;53653;52.188;8.602;2023-08-01T02:30:54;15.56;96.04
66740;DHT22;53653;52.188;8.602;2023-08-01T02:33:20;15.62;95.96
66740;DHT22;53653;52.188;8.602;2023-08-01T02:35:48;15.63;95.49
66740;DHT22;53653;52.188;8.602;2023-08-01T02:38:14;15.53;95.86
66740;DHT22;53653;52.188;8.602;2023-08-01T02:40:39;15.46;96.16
66740;DHT22;53653;52.188;8.602;2023-08-01T02:43:05;15.47;96.22
66740;DHT22;53653;52.188;8.602;2023-08-01T02:45:30;15.43;96.30
66740;DHT22;53653;52.188;8.602;2023-08-01T02:47:56;15.32;96.98
66740;DHT22;53653;52.188;8.602;2023-08-01T02:50:21;15.29;97.27
66740;DHT22;53653;52.188;8.602;2023-08-01T02:52:46;15.29;97.15
66740;DHT22;53653;52.188;8.602;2023-08-01T02:55:12;15.28;97.14
66740;DHT22;53653;52.188;8.602;2023-08-01T02:57:37;15.35;97.12
66740;DHT22;53653;52.188;8.602;2023-08-01T03:00:03;15.36;97.16
66740;DHT22;53653;52.188;8.602;2023-08-01T03:02:31;15.39;96.97
66740;DHT22;53653;52.188;8.602;2023-08-01T03:04:57;15.39;97.05
66740;DHT22;53653;52.188;8.602;2023-08-01T03:07:22;15.38;97.02
66740;DHT22;53653;52.188;8.602;2023-08-01T03:09:48;15.38;97.03
66740;DHT22;53653;52.188;8.602;2023-08-01T03:12:13;15.43;96.74
66740;DHT22;53653;52.188;8.602;2023-08-01T03:14:39;15.49;96.53
66740;DHT22;53653;52.188;8.602;2023-08-01T03:17:06;15.47;96.35
66740;DHT22;53653;52.188;8.602;2023-08-01T03:19:33;15.50;96.17
66740;DHT22;53653;52.188;8.602;2023-08-01T03:22:00;15.54;96.17
66740;DHT22;53653;52.188;8.602;2023-08-01T03:24:25;15.47;96.07
66740;DHT22;53653;52.188;8.602;2023-08-01T03:26:51;15.46;96.22
66740;DHT22;53653;52.188;8.602;2023-08-01T03:29:16;15.52;96.21
66740;DHT22;53653;52.188;8.602;2023-08-01T03:31:41;15.47;96.23
66740;DHT22;53653;52.188;8.602;2023-08-01T03:34:07;15.54;96.03
66740;DHT22;53653;52.188;8.602;2023-08-01T03:36:35;15.53;95.92
66740;DHT22;53653;52.188;8.602;2023-08-01T03:39:02;15.56;95.91
66740;DHT22;53653;52.188;8.602;2023-08-01T03:41:28;15.52;96.02
66740;DHT22;53653;52.188;8.602;2023-08-01T03:43:53;15.52;95.99
66740;DHT22;53653;52.188;8.602;2023-08-01T03:46:20;15.56;95.88
66740;DHT22;53653;52.188;8.602;2023-08-01T03:48:47;15.63;95.59
66740;DHT22;53653;52.188;8.602;2023-08-01T03:51:12;15.63;95.56
66740;DHT22;53653;52.188;8.602;2023-08-01T03:53:40;15.57;95.73
66740;DHT22;53653;52.188;8.602;2023-08-01T03:56:07;15.54;95.88
66740;DHT22;53653;52.188;8.602;2023-08-01T03:58:33;15.54;96.05
66740;DHT22;53653;52.188;8.602;2023-08-01T04:00:58;15.57;96.18
66740;DHT22;53653;52.188;8.602;2023-08-01T04:03:25;15.59;96.14
66740;DHT22;53653;52.188;8.602;2023-08-01T04:05:51;15.59;96.07
66740;DHT22;53653;52.188;8.602;2023-08-01T04:08:17;15.63;96.00
66740;DHT22;53653;52.188;8.602;2023-08-01T04:10:42;15.70;95.86
66740;DHT22;53653;52.188;8.602;2023-08-01T04:13:08;15.70;95.79
66740;DHT22;53653;52.188;8.602;2023-08-01T04:15:34;15.74;95.81
66740;DHT22;53653;52.188;8.602;2023-08-01T04:17:59;15.69;95.84
66740;DHT22;53653;52.188;8.602;2023-08-01T04:20:25;15.76;95.78
66740;DHT22;53653;52.188;8.602;2023-08-01T04:22:50;15.77;95.89
66740;DHT22;53653;52.188;8.602;2023-08-01T04:25:16;15.77;95.86
66740;DHT22;53653;52.188;8.602;2023-08-01T04:27:41;15.81;95.67
66740;DHT22;53653;52.188;8.602;2023-08-01T04:30:07;15.87;95.57
66740;DHT22;53653;52.188;8.602;2023-08-01T04:32:32;15.91;95.47
66740;DHT22;53653;52.188;8.602;2023-08-01T04:34:58;15.90;95.57
66740;DHT22;53653;52.188;8.602;2023-08-01T04:37:23;15.96;95.53
66740;DHT22;53653;52.188;8.602;2023-08-01T04:39:49;15.93;95.77
66740;DHT22;53653;52.188;8.602;2023-08-01T04:42:14;16.02;95.47
66740;DHT22;53653;52.188;8.602;2023-08-01T04:44:40;15.98;95.52
66740;DHT22;53653;52.188;8.602;2023-08-01T04:47:05;16.02;95.65
66740;DHT22;53653;52.188;8.602;2023-08-01T04:49:31;16.07;95.55
66740;DHT22;53653;52.188;8.602;2023-08-01T04:51:56;16.08;95.46
66740;DHT22;53653;52.188;8.602;2023-08-01T04:54:22;16.11;95.42
66740;DHT22;53653;52.188;8.602;2023-08-01T04:56:47;16.14;95.25
66740;DHT22;53653;52.188;8.602;2023-08-01T04:59:13;16.17;95.15
66740;DHT22;53653;52.188;8.602;2023-08-01T05:01:38;16.20;95.05
66740;DHT22;53653;52.188;8.602;2023-08-01T05:04:03;16.21;94.84
66740;DHT22;53653;52.188;8.602;2023-08-01T05:06:29;16.22;94.85
66740;DHT22;53653;52.188;8.602;2023-08-01T05:08:54;16.31;94.68
66740;DHT22;53653;52.188;8.602;2023-08-01T05:11:20;16.31;94.81
66740;DHT22;53653;52.188;8.602;2023-08-01T05:13:47;16.31;94.73
66740;DHT22;53653;52.188;8.602;2023-08-01T05:16:12;16.35;94.56
66740;DHT22;53653;52.188;8.602;2023-08-01T05:18:38;16.36;94.39
66740;DHT22;53653;52.188;8.602;2023-08-01T05:21:03;16.38;94.33
66740;DHT22;53653;52.188;8.602;2023-08-01T05:23:29;16.38;94.43
66740;DHT22;53653;52.188;8.602;2023-08-01T05:25:54;16.42;94.38
66740;DHT22;53653;52.188;8.602;2023-08-01T05:28:20;16.39;94.19
66740;DHT22;53653;52.188;8.602;2023-08-01T05:30:46;16.41;93.95
66740;DHT22;53653;52.188;8.602;2023-08-01T05:35:53;16.45;93.97
66740;DHT22;53653;52.188;8.602;2023-08-01T05:38:19;16.41;93.74
66740;DHT22;53653;52.188;8.602;2023-08-01T05:43:26;16.39;93.98
66740;DHT22;53653;52.188;8.602;2023-08-01T05:45:52;16.41;93.99
66740;DHT22;53653;52.188;8.602;2023-08-01T05:48:17;16.38;94.08
66740;DHT22;53653;52.188;8.602;2023-08-01T05:50:43;16.36;94.04
66740;DHT22;53653;52.188;8.602;2023-08-01T05:53:08;16.35;93.97
66740;DHT22;53653;52.188;8.602;2023-08-01T05:55:34;16.32;94.11
66740;DHT22;53653;52.188;8.602;2023-08-01T05:57:59;16.32;94.04
66740;DHT22;53653;52.188;8.602;2023-08-01T06:00:25;16.28;93.61
66740;DHT22;53653;52.188;8.602;2023-08-01T06:02:50;16.21;93.73
66740;DHT22;53653;52.188;8.602;2023-08-01T06:05:16;16.18;93.87
66740;DHT22;53653;52.188;8.602;2023-08-01T06:07:41;16.22;94.18
66740;DHT22;53653;52.188;8.602;2023-08-01T06:10:07;16.22;94.02
66740;DHT22;53653;52.188;8.602;2023-08-01T06:12:32;16.22;94.18
66740;DHT22;53653;52.188;8.602;2023-08-01T06:14:58;16.20;94.03
66740;DHT22;53653;52.188;8.602;2023-08-01T06:17:23;16.25;94.04
66740;DHT22;53653;52.188;8.602;2023-08-01T06:19:49;16.18;93.91
66740;DHT22;53653;52.188;8.602;2023-08-01T06:22:15;16.21;93.95
66740;DHT22;53653;52.188;8.602;2023-08-01T06:24:40;16.18;93.64
66740;DHT22;53653;52.188;8.602;2023-08-01T06:27:06;16.24;93.85
66740;DHT22;53653;52.188;8.602;2023-08-01T06:29:31;16.29;93.46
66740;DHT22;53653;52.188;8.602;2023-08-01T06:31:57;16.38;93.05
66740;DHT22;53653;52.188;8.602;2023-08-01T06:34:22;16.52;92.69
66740;DHT22;53653;52.188;8.602;2023-08-01T06:36:50;16.70;92.25
66740;DHT22;53653;52.188;8.602;2023-08-01T06:39:15;17.06;91.21
66740;DHT22;53653;52.188;8.602;2023-08-01T06:41:41;16.86;91.29
66740;DHT22;53653;52.188;8.602;2023-08-01T06:44:06;17.00;91.20
66740;DHT22;53653;52.188;8.602;2023-08-01T06:46:32;16.89;91.24
66740;DHT22;53653;52.188;8.602;2023-08-01T06:48:57;16.91;91.47
66740;DHT22;53653;52.188;8.602;2023-08-01T06:51:23;16.86;91.14
66740;DHT22;53653;52.188;8.602;2023-08-01T06:53:48;16.77;91.37
66740;DHT22;53653;52.188;8.602;2023-08-01T06:56:14;16.80;91.76
66740;DHT22;53653;52.188;8.602;2023-08-01T06:58:39;16.80;91.41
66740;DHT22;53653;52.188;8.602;2023-08-01T07:01:04;16.86;91.52
66740;DHT22;53653;52.188;8.602;2023-08-01T07:03:30;16.80;91.18
66740;DHT22;53653;52.188;8.602;2023-08-01T07:05:56;16.76;91.69
66740;DHT22;53653;52.188;8.602;2023-08-01T07:08:21;16.80;91.56
66740;DHT22;53653;52.188;8.602;2023-08-01T07:10:48;16.80;91.79
66740;DHT22;53653;52.188;8.602;2023-08-01T07:13:13;16.72;91.79
66740;DHT22;53653;52.188;8.602;2023-08-01T07:15:39;16.63;92.06
66740;DHT22;53653;52.188;8.602;2023-08-01T07:18:04;16.53;92.34
66740;DHT22;53653;52.188;8.602;2023-08-01T07:20:29;16.59;92.64
66740;DHT22;53653;52.188;8.602;2023-08-01T07:22:55;16.59;92.63
66740;DHT22;53653;52.188;8.602;2023-08-01T07:25:20;16.59;92.31
66740;DHT22;53653;52.188;8.602;2023-08-01T07:27:47;16.59;92.21
66740;DHT22;53653;52.188;8.602;2023-08-01T07:30:13;16.66;91.91
66740;DHT22;53653;52.188;8.602;2023-08-01T07:32:38;16.66;91.78
66740;DHT22;53653;52.188;8.602;2023-08-01T07:35:05;16.76;92.06
66740;DHT22;53653;52.188;8.602;2023-08-01T07:37:32;17.06;91.40
66740;DHT22;53653;52.188;8.602;2023-08-01T07:39:58;17.27;90.63
66740;DHT22;53653;52.188;8.602;2023-08-01T07:42:24;17.30;90.41
66740;DHT22;53653;52.188;8.602;2023-08-01T07:44:49;17.89;87.93
66740;DHT22;53653;52.188;8.602;2023-08-01T07:47:14;18.29;86.55
66740;DHT22;53653;52.188;8.602;2023-08-01T07:49:40;18.26;87.22
66740;DHT22;53653;52.188;8.602;2023-08-01T07:52:06;18.55;86.21
66740;DHT22;53653;52.188;8.602;2023-08-01T07:54:31;18.30;85.60
66740;DHT22;53653;52.188;8.602;2023-08-01T07:56:57;18.58;86.14
66740;DHT22;53653;52.188;8.602;2023-08-01T07:59:22;18.41;85.97
66740;DHT22;53653;52.188;8.602;2023-08-01T08:01:48;18.26;86.42
66740;DHT22;53653;52.188;8.602;2023-08-01T08:04:13;18.07;85.66
66740;DHT22;53653;52.188;8.602;2023-08-01T08:06:40;17.97;85.71
66740;DHT22;53653;52.188;8.602;2023-08-01T08:09:06;17.92;85.91
66740;DHT22;53653;52.188;8.602;2023-08-01T08:11:31;18.04;86.50
66740;DHT22;53653;52.188;8.602;2023-08-01T08:13:58;17.97;86.47
66740;DHT22;53653;52.188;8.602;2023-08-01T08:16:24;17.93;87.12
66740;DHT22;53653;52.188;8.602;2023-08-01T08:18:50;17.75;86.52
66740;DHT22;53653;52.188;8.602;2023-08-01T08:21:15;17.66;87.89
66740;DHT22;53653;52.188;8.602;2023-08-01T08:23:41;17.66;87.67
66740;DHT22;53653;52.188;8.602;2023-08-01T08:26:06;18.24;86.13
66740;DHT22;53653;52.188;8.602;2023-08-01T08:28:33;18.10;86.17
66740;DHT22;53653;52.188;8.602;2023-08-01T08:31:00;18.26;85.95
66740;DHT22;53653;52.188;8.602;2023-08-01T08:33:26;18.74;84.27
66740;DHT22;53653;52.188;8.602;2023-08-01T08:35:51;19.41;82.82
66740;DHT22;53653;52.188;8.602;2023-08-01T08:38:17;19.63;81.59
66740;DHT22;53653;52.188;8.602;2023-08-01T08:41:10;19.34;82.31
66740;DHT22;53653;52.188;8.602;2023-08-01T08:43:37;19.26;82.28
66740;DHT22;53653;52.188;8.602;2023-08-01T08:46:04;19.09;81.91
66740;DHT22;53653;52.188;8.602;2023-08-01T08:48:30;19.23;82.47
66740;DHT22;53653;52.188;8.602;2023-08-01T08:51:00;19.47;81.52
66740;DHT22;53653;52.188;8.602;2023-08-01T08:53:26;19.40;80.86
66740;DHT22;53653;52.188;8.602;2023-08-01T08:55:52;19.01;81.25
66740;DHT22;53653;52.188;8.602;2023-08-01T08:58:18;18.79;81.69
66740;DHT22;53653;52.188;8.602;2023-08-01T09:00:45;18.75;82.54
66740;DHT22;53653;52.188;8.602;2023-08-01T09:03:12;18.96;81.16
66740;DHT22;53653;52.188;8.602;2023-08-01T09:05:45;19.08;80.63
66740;DHT22;53653;52.188;8.602;2023-08-01T09:08:21;19.08;80.52
66740;DHT22;53653;52.188;8.602;2023-08-01T09:10:47;19.03;81.03
66740;DHT22;53653;52.188;8.602;2023-08-01T09:13:13;18.85;81.48
66740;DHT22;53653;52.188;8.602;2023-08-01T09:15:41;18.78;82.18
66740;DHT22;53653;52.188;8.602;2023-08-01T09:18:08;18.67;81.70
66740;DHT22;53653;52.188;8.602;2023-08-01T09:20:47;18.48;81.52
66740;DHT22;53653;52.188;8.602;2023-08-01T09:23:14;18.54;81.10
66740;DHT22;53653;52.188;8.602;2023-08-01T09:25:40;19.22;79.03
66740;DHT22;53653;52.188;8.602;2023-08-01T09:28:20;19.66;77.45
66740;DHT22;53653;52.188;8.602;2023-08-01T09:30:47;19.98;76.61
66740;DHT22;53653;52.188;8.602;2023-08-01T09:33:13;20.08;75.50
66740;DHT22;53653;52.188;8.602;2023-08-01T09:35:39;20.49;74.55
66740;DHT22;53653;52.188;8.602;2023-08-01T09:38:04;20.60;73.88
66740;DHT22;53653;52.188;8.602;2023-08-01T09:40:37;20.32;75.39
66740;DHT22;53653;52.188;8.602;2023-08-01T09:43:02;20.59;73.98
66740;DHT22;53653;52.188;8.602;2023-08-01T09:45:28;20.21;74.13
66740;DHT22;53653;52.188;8.602;2023-08-01T09:47:53;20.18;74.30
66740;DHT22;53653;52.188;8.602;2023-08-01T09:50:21;20.04;75.10
66740;DHT22;53653;52.188;8.602;2023-08-01T09:52:46;20.14;75.26
66740;DHT22;53653;52.188;8.602;2023-08-01T09:55:20;19.89;76.08
66740;DHT22;53653;52.188;8.602;2023-08-01T09:57:48;20.70;74.27
66740;DHT22;53653;52.188;8.602;2023-08-01T10:00:14;20.19;75.09
66740;DHT22;53653;52.188;8.602;2023-08-01T10:02:42;19.60;76.11
66740;DHT22;53653;52.188;8.602;2023-08-01T10:05:09;19.19;78.96
66740;DHT22;53653;52.188;8.602;2023-08-01T10:07:38;18.94;81.27
66740;DHT22;53653;52.188;8.602;2023-08-01T10:10:05;18.74;81.25
66740;DHT22;53653;52.188;8.602;2023-08-01T10:12:31;18.68;82.58
66740;DHT22;53653;52.188;8.602;2023-08-01T10:14:57;18.38;83.37
66740;DHT22;53653;52.188;8.602;2023-08-01T10:17:23;18.16;83.70
66740;DHT22;53653;52.188;8.602;2023-08-01T10:19:50;18.07;83.72
66740;DHT22;53653;52.188;8.602;2023-08-01T10:22:19;18.22;83.58
66740;DHT22;53653;52.188;8.602;2023-08-01T10:24:46;18.43;83.27
66740;DHT22;53653;52.188;8.602;2023-08-01T10:27:20;18.69;83.12
66740;DHT22;53653;52.188;8.602;2023-08-01T10:29:59;18.95;81.39
66740;DHT22;53653;52.188;8.602;2023-08-01T10:32:43;19.34;80.61
66740;DHT22;53653;52.188;8.602;2023-08-01T10:35:08;20.08;77.47
66740;DHT22;53653;52.188;8.602;2023-08-01T10:37:43;20.74;74.33
66740;DHT22;53653;52.188;8.602;2023-08-01T10:40:11;21.15;72.34
66740;DHT22;53653;52.188;8.602;2023-08-01T10:42:42;20.94;71.25
66740;DHT22;53653;52.188;8.602;2023-08-01T10:45:20;20.40;74.67
66740;DHT22;53653;52.188;8.602;2023-08-01T10:47:45;19.89;76.80
66740;DHT22;53653;52.188;8.602;2023-08-01T10:50:15;19.51;77.39
66740;DHT22;53653;52.188;8.602;2023-08-01T10:52:41;19.40;79.22
66740;DHT22;53653;52.188;8.602;2023-08-01T10:55:07;19.87;77.56
66740;DHT22;53653;52.188;8.602;2023-08-01T10:57:35;20.18;75.38
66740;DHT22;53653;52.188;8.602;2023-08-01T11:00:03;20.90;74.81
66740;DHT22;53653;52.188;8.602;2023-08-01T11:02:30;20.91;72.44
66740;DHT22;53653;52.188;8.602;2023-08-01T11:05:03;20.46;74.71
66740;DHT22;53653;52.188;8.602;2023-08-01T11:07:29;20.09;74.82
66740;DHT22;53653;52.188;8.602;2023-08-01T11:10:08;19.87;76.31
66740;DHT22;53653;52.188;8.602;2023-08-01T11:12:35;19.75;76.39
66740;DHT22;53653;52.188;8.602;2023-08-01T11:15:02;19.66;78.10
66740;DHT22;53653;52.188;8.602;2023-08-01T11:17:28;19.33;77.79
66740;DHT22;53653;52.188;8.602;2023-08-01T11:20:05;18.99;78.95
66740;DHT22;53653;52.188;8.602;2023-08-01T11:22:31;19.03;79.97
66740;DHT22;53653;52.188;8.602;2023-08-01T11:24:57;18.87;80.51
66740;DHT22;53653;52.188;8.602;2023-08-01T11:27:24;18.60;80.92
66740;DHT22;53653;52.188;8.602;2023-08-01T11:29:50;18.16;81.84
66740;DHT22;53653;52.188;8.602;2023-08-01T11:32:15;17.95;82.42
66740;DHT22;53653;52.188;8.602;2023-08-01T11:34:42;17.74;82.30
66740;DHT22;53653;52.188;8.602;2023-08-01T11:37:12;17.76;83.64
66740;DHT22;53653;52.188;8.602;2023-08-01T11:39:38;17.82;83.47
66740;DHT22;53653;52.188;8.602;2023-08-01T11:42:05;17.90;83.50
66740;DHT22;53653;52.188;8.602;2023-08-01T11:44:31;18.00;83.10
66740;DHT22;53653;52.188;8.602;2023-08-01T11:46:57;18.43;82.99
66740;DHT22;53653;52.188;8.602;2023-08-01T11:49:23;18.84;81.70
66740;DHT22;53653;52.188;8.602;2023-08-01T11:51:49;19.31;80.10
66740;DHT22;53653;52.188;8.602;2023-08-01T11:54:15;19.81;78.87
66740;DHT22;53653;52.188;8.602;2023-08-01T11:56:41;20.46;78.66
66740;DHT22;53653;52.188;8.602;2023-08-01T11:59:15;20.88;76.65
66740;DHT22;53653;52.188;8.602;2023-08-01T12:01:45;21.05;75.89
66740;DHT22;53653;52.188;8.602;2023-08-01T12:04:11;20.84;76.54
66740;DHT22;53653;52.188;8.602;2023-08-01T12:06:37;21.30;75.43
66740;DHT22;53653;52.188;8.602;2023-08-01T12:09:12;21.27;74.89
66740;DHT22;53653;52.188;8.602;2023-08-01T12:11:41;21.18;72.29
66740;DHT22;53653;52.188;8.602;2023-08-01T12:14:10;21.20;72.10
66740;DHT22;53653;52.188;8.602;2023-08-01T12:16:37;20.97;72.20
66740;DHT22;53653;52.188;8.602;2023-08-01T12:19:03;20.80;73.06
66740;DHT22;53653;52.188;8.602;2023-08-01T12:21:30;20.59;73.23
66740;DHT22;53653;52.188;8.602;2023-08-01T12:23:56;20.24;73.13
66740;DHT22;53653;52.188;8.602;2023-08-01T12:26:22;20.36;73.17
66740;DHT22;53653;52.188;8.602;2023-08-01T12:28:48;20.53;71.92
66740;DHT22;53653;52.188;8.602;2023-08-01T12:31:17;20.63;72.86
66740;DHT22;53653;52.188;8.602;2023-08-01T12:33:46;20.57;72.93
66740;DHT22;53653;52.188;8.602;2023-08-01T12:36:12;20.28;72.89
66740;DHT22;53653;52.188;8.602;2023-08-01T12:38:38;20.01;72.66
66740;DHT22;53653;52.188;8.602;2023-08-01T12:41:04;19.73;72.54
66740;DHT22;53653;52.188;8.602;2023-08-01T12:43:29;19.77;73.35
66740;DHT22;53653;52.188;8.602;2023-08-01T12:45:55;19.70;73.93
66740;DHT22;53653;52.188;8.602;2023-08-01T12:48:24;19.63;75.10
66740;DHT22;53653;52.188;8.602;2023-08-01T12:50:49;19.54;75.35
66740;DHT22;53653;52.188;8.602;2023-08-01T12:53:15;19.41;75.89
66740;DHT22;53653;52.188;8.602;2023-08-01T12:55:45;19.30;76.83
66740;DHT22;53653;52.188;8.602;2023-08-01T12:58:11;19.08;78.88
66740;DHT22;53653;52.188;8.602;2023-08-01T13:00:36;18.36;80.53
66740;DHT22;53653;52.188;8.602;2023-08-01T13:03:02;17.65;81.31
66740;DHT22;53653;52.188;8.602;2023-08-01T13:05:28;17.13;83.20
66740;DHT22;53653;52.188;8.602;2023-08-01T13:07:53;16.91;84.55
66740;DHT22;53653;52.188;8.602;2023-08-01T13:10:19;16.72;84.77
66740;DHT22;53653;52.188;8.602;2023-08-01T13:12:44;16.63;84.70
66740;DHT22;53653;52.188;8.602;2023-08-01T13:15:10;16.60;85.09
66740;DHT22;53653;52.188;8.602;2023-08-01T13:17:35;16.65;85.32
66740;DHT22;53653;52.188;8.602;2023-08-01T13:20:01;16.70;85.88
66740;DHT22;53653;52.188;8.602;2023-08-01T13:22:26;16.96;85.71
66740;DHT22;53653;52.188;8.602;2023-08-01T13:24:52;17.32;85.12
66740;DHT22;53653;52.188;8.602;2023-08-01T13:27:17;17.64;83.98
66740;DHT22;53653;52.188;8.602;2023-08-01T13:29:43;17.90;83.02
66740;DHT22;53653;52.188;8.602;2023-08-01T13:32:08;18.18;83.43
66740;DHT22;53653;52.188;8.602;2023-08-01T13:34:33;18.09;83.00
66740;DHT22;53653;52.188;8.602;2023-08-01T13:36:59;18.30;84.13
66740;DHT22;53653;52.188;8.602;2023-08-01T13:39:24;18.50;83.33
66740;DHT22;53653;52.188;8.602;2023-08-01T13:41:50;18.78;82.45
66740;DHT22;53653;52.188;8.602;2023-08-01T13:44:16;19.13;82.19
66740;DHT22;53653;52.188;8.602;2023-08-01T13:46:41;19.30;82.01
66740;DHT22;53653;52.188;8.602;2023-08-01T13:49:07;19.24;79.67
66740;DHT22;53653;52.188;8.602;2023-08-01T13:51:33;19.40;77.96
66740;DHT22;53653;52.188;8.602;2023-08-01T13:53:58;19.12;78.55
66740;DHT22;53653;52.188;8.602;2023-08-01T13:56:24;19.03;78.09
66740;DHT22;53653;52.188;8.602;2023-08-01T13:58:51;19.03;79.48
66740;DHT22;53653;52.188;8.602;2023-08-01T14:01:17;18.94;79.04
66740;DHT22;53653;52.188;8.602;2023-08-01T14:03:44;18.96;79.11
66740;DHT22;53653;52.188;8.602;2023-08-01T14:06:11;19.10;79.64
66740;DHT22;53653;52.188;8.602;2023-08-01T14:08:38;19.15;79.47
66740;DHT22;53653;52.188;8.602;2023-08-01T14:11:06;19.31;78.80
66740;DHT22;53653;52.188;8.602;2023-08-01T14:13:32;19.40;78.28
66740;DHT22;53653;52.188;8.602;2023-08-01T14:15:57;19.33;76.98
66740;DHT22;53653;52.188;8.602;2023-08-01T14:18:23;19.71;77.29
66740;DHT22;53653;52.188;8.602;2023-08-01T14:20:49;19.88;76.74
66740;DHT22;53653;52.188;8.602;2023-08-01T14:23:14;19.98;75.72
66740;DHT22;53653;52.188;8.602;2023-08-01T14:25:40;20.08;75.04
66740;DHT22;53653;52.188;8.602;2023-08-01T14:28:06;20.15;74.33
66740;DHT22;53653;52.188;8.602;2023-08-01T14:30:32;20.18;73.26
66740;DHT22;53653;52.188;8.602;2023-08-01T14:33:04;20.08;73.62
66740;DHT22;53653;52.188;8.602;2023-08-01T14:35:31;20.15;74.85
66740;DHT22;53653;52.188;8.602;2023-08-01T14:37:57;20.21;74.13
66740;DHT22;53653;52.188;8.602;2023-08-01T14:40:23;20.04;73.78
66740;DHT22;53653;52.188;8.602;2023-08-01T14:42:49;19.99;74.20
66740;DHT22;53653;52.188;8.602;2023-08-01T14:45:15;19.87;74.80
66740;DHT22;53653;52.188;8.602;2023-08-01T14:47:41;19.67;75.13
66740;DHT22;53653;52.188;8.602;2023-08-01T14:50:09;19.54;75.60
66740;DHT22;53653;52.188;8.602;2023-08-01T14:52:35;19.54;77.08
66740;DHT22;53653;52.188;8.602;2023-08-01T14:55:00;19.49;76.59
66740;DHT22;53653;52.188;8.602;2023-08-01T14:57:26;19.47;76.49
66740;DHT22;53653;52.188;8.602;2023-08-01T14:59:52;19.41;75.62
66740;DHT22;53653;52.188;8.602;2023-08-01T15:02:17;19.37;76.15
66740;DHT22;53653;52.188;8.602;2023-08-01T15:04:44;19.33;75.75
66740;DHT22;53653;52.188;8.602;2023-08-01T15:07:09;19.23;75.12
66740;DHT22;53653;52.188;8.602;2023-08-01T15:09:35;19.23;75.61
66740;DHT22;53653;52.188;8.602;2023-08-01T15:12:00;19.30;76.09
66740;DHT22;53653;52.188;8.602;2023-08-01T15:14:26;19.27;76.83
66740;DHT22;53653;52.188;8.602;2023-08-01T15:16:51;19.27;77.60
66740;DHT22;53653;52.188;8.602;2023-08-01T15:19:17;19.26;77.94
66740;DHT22;53653;52.188;8.602;2023-08-01T15:21:44;19.27;79.61
66740;DHT22;53653;52.188;8.602;2023-08-01T15:24:10;19.31;80.82
66740;DHT22;53653;52.188;8.602;2023-08-01T15:26:35;19.39;81.77
66740;DHT22;53653;52.188;8.602;2023-08-01T15:29:01;19.40;80.67
66740;DHT22;53653;52.188;8.602;2023-08-01T15:31:26;19.47;80.87